Time;durP1;ratioP1;P1;durP2;ratioP2;P2;SDS_P1;SDS_P2;PMS_P1;PMS_P2;Temp;Humidity;BMP_temperature;BMP_pressure;BME280_temperature;BME280_humidity;BME280_pressure;Samples;Min_cycle;Max_cycle;Signal;HPM_P1;HPM_P2
2022/10/24 00:01:23;;;;;;;;;;;;;;;5.51;77.44;100338.72;5093711;28;2059;-78
2022/10/24 00:03:50;;;;;;;;;;;;;;;5.58;77.20;100341.44;5094950;28;1242;-79
2022/10/24 00:06:16;;;;;;;;;;;;;;;5.50;77.40;100345.09;5093854;28;1926;-78
2022/10/24 00:08:42;;;;;;;;;;;;;;;5.51;77.53;100344.06;5099231;28;1191;-79
2022/10/24 00:11:08;;;;;;;;;;;;;;;5.71;76.83;100346.91;5105423;28;992;-78
2022/10/24 00:13:35;;;;;;;;;;;;;;;5.52;77.30;100340.34;5087079;28;1264;-79
2022/10/24 00:16:01;;;;;;;;;;;;;;;5.61;77.38;100343.72;5087475;28;1998;-79
2022/10/24 00:18:27;;;;;;;;;;;;;;;5.49;77.60;100337.25;5077211;28;1939;-78
2022/10/24 00:20:54;;;;;;;;;;;;;;;5.51;77.50;100337.91;5097212;28;1102;-80
2022/10/24 00:23:20;;;;;;;;;;;;;;;5.56;77.48;100346.13;5080913;28;1337;-78
2022/10/24 00:25:46;;;;;;;;;;;;;;;5.53;77.59;100338.50;5104294;28;1879;-78
2022/10/24 00:28:12;;;;;;;;;;;;;;;5.56;77.25;100347.00;5076579;28;1244;-79
2022/10/24 00:30:39;;;;;;;;;;;;;;;5.70;76.80;100339.91;5094049;28;1565;-80
2022/10/24 00:33:05;;;;;;;;;;;;;;;5.60;77.28;100339.41;5066702;28;1836;-78
2022/10/24 00:35:31;;;;;;;;;;;;;;;5.60;77.28;100342.09;5067208;28;1926;-78
2022/10/24 00:37:58;;;;;;;;;;;;;;;5.60;77.14;100332.22;5094483;28;1697;-79
2022/10/24 00:40:24;;;;;;;;;;;;;;;5.62;77.08;100335.53;5089820;28;1750;-79
2022/10/24 00:42:50;;;;;;;;;;;;;;;5.60;77.12;100334.06;5075474;28;1382;-79
2022/10/24 00:45:16;;;;;;;;;;;;;;;5.62;76.93;100324.84;5092602;28;1816;-78
2022/10/24 00:47:43;;;;;;;;;;;;;;;5.45;77.64;100323.47;5076912;28;1713;-78
2022/10/24 00:50:09;;;;;;;;;;;;;;;5.51;77.59;100322.69;5094315;28;1267;-78
2022/10/24 00:52:35;;;;;;;;;;;;;;;5.49;77.52;100322.03;5076596;28;1136;-77
2022/10/24 00:55:01;;;;;;;;;;;;;;;5.46;77.59;100319.75;5075039;28;1964;-78
2022/10/24 00:57:28;;;;;;;;;;;;;;;5.48;77.68;100323.06;5079550;28;1195;-78
2022/10/24 00:59:54;;;;;;;;;;;;;;;5.56;77.26;100320.28;5086436;28;1120;-78
2022/10/24 01:02:21;;;;;;;;;;;;;;;5.50;77.63;100330.88;5092636;28;2112;-78
2022/10/24 01:04:47;;;;;;;;;;;;;;;5.41;77.87;100317.69;5090880;28;4002;-78
2022/10/24 01:07:13;;;;;;;;;;;;;;;5.45;77.85;100315.44;5092908;28;3238;-78
2022/10/24 01:09:40;;;;;;;;;;;;;;;5.53;77.29;100318.00;5075862;28;3116;-78
2022/10/24 01:12:06;;;;;;;;;;;;;;;5.54;77.49;100314.28;5075265;28;2008;-77
2022/10/24 01:14:32;;;;;;;;;;;;;;;5.53;77.59;100314.47;5068519;28;4695;-79
2022/10/24 01:16:58;;;;;;;;;;;;;;;5.52;77.50;100313.66;5093930;28;1107;-78
2022/10/24 01:19:25;;;;;;;;;;;;;;;5.44;77.67;100303.94;5075908;28;4674;-77
2022/10/24 01:21:51;;;;;;;;;;;;;;;5.50;77.54;100302.34;5074706;28;1969;-78
2022/10/24 01:24:17;;;;;;;;;;;;;;;5.50;77.57;100307.69;5073121;28;1144;-78
2022/10/24 01:26:43;;;;;;;;;;;;;;;5.45;77.82;100291.41;5075951;28;1439;-78
2022/10/24 01:29:10;;;;;;;;;;;;;;;5.53;77.42;100301.09;5093974;28;921;-78
2022/10/24 01:31:36;;;;;;;;;;;;;;;5.43;77.83;100294.25;5067267;28;3830;-77
2022/10/24 01:34:03;;;;;;;;;;;;;;;5.58;77.18;100307.53;5068140;28;1905;-78
2022/10/24 01:36:29;;;;;;;;;;;;;;;5.53;77.34;100304.63;5089059;28;1693;-78
2022/10/24 01:38:55;;;;;;;;;;;;;;;5.56;77.33;100301.56;5086338;28;1547;-79
2022/10/24 01:41:21;;;;;;;;;;;;;;;5.53;77.37;100307.31;5056352;28;1853;-79
2022/10/24 01:43:48;;;;;;;;;;;;;;;5.63;77.14;100291.75;5069709;28;2813;-79
2022/10/24 01:46:14;;;;;;;;;;;;;;;5.51;77.42;100289.81;5048467;28;1644;-78
2022/10/24 01:48:40;;;;;;;;;;;;;;;5.43;77.83;100282.75;5063356;28;1746;-79
2022/10/24 01:51:07;;;;;;;;;;;;;;;5.51;77.55;100277.28;5080334;28;1513;-78
2022/10/24 01:53:33;;;;;;;;;;;;;;;5.52;77.65;100272.75;5051391;28;2187;-79
2022/10/24 01:55:59;;;;;;;;;;;;;;;5.50;77.62;100259.59;5078122;28;1922;-79
2022/10/24 01:58:25;;;;;;;;;;;;;;;5.56;77.38;100255.31;5054006;28;1706;-80
2022/10/24 02:00:52;;;;;;;;;;;;;;;5.51;77.44;100261.25;5074967;28;1536;-79
2022/10/24 02:03:18;;;;;;;;;;;;;;;5.45;77.71;100251.34;5079459;28;1599;-78
2022/10/24 02:05:44;;;;;;;;;;;;;;;5.49;77.53;100246.44;5083030;28;1666;-78
2022/10/24 02:08:10;;;;;;;;;;;;;;;5.59;77.30;100239.75;5082436;28;1440;-79
2022/10/24 02:10:37;;;;;;;;;;;;;;;5.52;77.38;100232.69;5062795;28;1803;-78
2022/10/24 02:13:03;;;;;;;;;;;;;;;5.45;77.65;100228.13;5058515;28;1902;-79
2022/10/24 02:15:29;;;;;;;;;;;;;;;5.57;77.55;100238.28;5053398;28;1988;-78
2022/10/24 02:17:55;;;;;;;;;;;;;;;5.46;77.73;100237.78;5054897;28;1498;-79
2022/10/24 02:20:22;;;;;;;;;;;;;;;5.46;77.72;100231.63;5089758;28;1591;-79
2022/10/24 02:22:48;;;;;;;;;;;;;;;5.50;77.61;100232.91;5070821;28;1748;-79
2022/10/24 02:25:14;;;;;;;;;;;;;;;5.49;77.55;100238.41;5073281;28;1552;-78
2022/10/24 02:27:41;;;;;;;;;;;;;;;5.46;77.67;100232.44;5062150;28;1478;-79
2022/10/24 02:30:07;;;;;;;;;;;;;;;5.51;77.47;100223.03;5058564;28;1552;-78
2022/10/24 02:32:33;;;;;;;;;;;;;;;5.51;77.66;100225.69;5068825;28;1934;-79
2022/10/24 02:34:59;;;;;;;;;;;;;;;5.51;77.35;100226.53;5050497;28;1918;-79
2022/10/24 02:37:26;;;;;;;;;;;;;;;5.76;76.46;100231.41;5041139;28;2999;-79
2022/10/24 02:39:52;;;;;;;;;;;;;;;5.61;77.07;100226.16;5060542;28;3154;-79
2022/10/24 02:42:18;;;;;;;;;;;;;;;5.55;77.40;100216.25;5055051;28;1971;-79
2022/10/24 02:44:45;;;;;;;;;;;;;;;5.51;77.34;100223.03;5044591;28;1726;-79
2022/10/24 02:47:12;;;;;;;;;;;;;;;5.49;77.75;100219.72;5081758;28;1483;-79
2022/10/24 02:49:38;;;;;;;;;;;;;;;5.44;77.70;100220.28;5055651;28;1721;-79
2022/10/24 02:52:04;;;;;;;;;;;;;;;5.43;77.70;100218.66;5076041;28;1919;-79
2022/10/24 02:54:31;;;;;;;;;;;;;;;5.59;77.23;100215.69;5073623;28;1941;-78
2022/10/24 02:56:57;;;;;;;;;;;;;;;5.55;77.68;100211.75;5081334;28;1444;-79
2022/10/24 02:59:23;;;;;;;;;;;;;;;5.45;77.47;100204.09;5070733;28;1951;-79
2022/10/24 03:01:49;;;;;;;;;;;;;;;5.49;77.45;100206.38;5047684;28;1988;-79
2022/10/24 03:04:16;;;;;;;;;;;;;;;5.55;76.91;100200.22;5044519;28;1494;-78
2022/10/24 03:06:42;;;;;;;;;;;;;;;5.54;77.37;100202.09;5054606;28;1779;-79
2022/10/24 03:09:08;;;;;;;;;;;;;;;5.52;77.56;100197.97;5082071;28;1748;-79
2022/10/24 03:11:34;;;;;;;;;;;;;;;5.48;77.62;100192.19;5051905;28;1590;-79
2022/10/24 03:14:01;;;;;;;;;;;;;;;5.50;77.41;100200.00;5066434;28;1633;-79
2022/10/24 03:16:28;;;;;;;;;;;;;;;5.44;77.79;100189.09;5086005;28;1918;-79
2022/10/24 03:18:54;;;;;;;;;;;;;;;5.46;77.53;100183.53;5067020;28;1591;-78
2022/10/24 03:21:20;;;;;;;;;;;;;;;5.51;77.56;100181.09;5067542;28;1931;-79
2022/10/24 03:23:48;;;;;;;;;;;;;;;5.44;77.93;100180.22;5070298;28;1525;-78
2022/10/24 03:26:14;;;;;;;;;;;;;;;5.42;78.00;100168.94;5044567;28;1556;-78
2022/10/24 03:28:40;;;;;;;;;;;;;;;5.42;77.89;100171.59;5065825;28;1540;-78
2022/10/24 03:31:07;;;;;;;;;;;;;;;5.49;77.72;100172.47;5065343;28;1922;-78
2022/10/24 03:33:33;;;;;;;;;;;;;;;5.54;77.56;100171.88;5069759;28;1490;-79
2022/10/24 03:35:59;;;;;;;;;;;;;;;5.46;77.79;100178.19;5070485;28;1922;-79
2022/10/24 03:38:25;;;;;;;;;;;;;;;5.44;77.88;100170.38;5074091;28;1595;-79
2022/10/24 03:40:52;;;;;;;;;;;;;;;5.48;77.69;100162.81;5064717;28;1963;-78
2022/10/24 03:43:18;;;;;;;;;;;;;;;5.51;77.63;100158.91;5042725;28;5011;-78
2022/10/24 03:45:44;;;;;;;;;;;;;;;5.49;77.71;100164.44;5052792;28;3857;-77
2022/10/24 03:48:11;;;;;;;;;;;;;;;5.50;77.72;100155.44;5081916;28;1776;-78
2022/10/24 03:50:37;;;;;;;;;;;;;;;5.50;77.56;100152.75;5078829;28;4738;-78
2022/10/24 03:53:03;;;;;;;;;;;;;;;5.01;77.51;100077.03;5043641;28;1664;-78
2022/10/24 03:55:29;;;;;;;;;;;;;;;5.55;77.42;100154.81;5077051;28;1975;-78
2022/10/24 03:57:56;;;;;;;;;;;;;;;5.47;77.68;100153.97;5082415;28;1490;-78
2022/10/24 04:00:22;;;;;;;;;;;;;;;5.49;77.68;100147.59;5055940;28;1980;-78
2022/10/24 04:02:49;;;;;;;;;;;;;;;5.49;77.58;100150.25;5059622;28;3822;-78
2022/10/24 04:05:16;;;;;;;;;;;;;;;5.55;77.69;100155.63;5072263;28;1977;-79
2022/10/24 04:07:42;;;;;;;;;;;;;;;5.43;77.99;100149.19;5069336;28;1512;-79
2022/10/24 04:10:08;;;;;;;;;;;;;;;5.48;77.65;100141.44;5065347;28;1547;-79
2022/10/24 04:12:35;;;;;;;;;;;;;;;5.62;77.13;100137.00;5045743;28;1830;-78
2022/10/24 04:15:01;;;;;;;;;;;;;;;5.50;77.71;100142.06;5044133;28;3272;-78
2022/10/24 04:17:27;;;;;;;;;;;;;;;5.47;77.73;100145.09;5078330;28;1753;-78
2022/10/24 04:19:54;;;;;;;;;;;;;;;5.48;77.58;100136.09;5071399;28;1959;-79
2022/10/24 04:22:20;;;;;;;;;;;;;;;5.56;77.37;100135.09;5068872;28;1834;-78
2022/10/24 04:24:46;;;;;;;;;;;;;;;5.52;77.46;100144.53;5062974;28;1745;-78
2022/10/24 04:27:16;;;;;;;;;;;;;;;5.57;77.34;100144.78;5053965;28;1563;-79
2022/10/24 04:29:42;;;;;;;;;;;;;;;5.60;77.11;100147.88;5063439;28;2010;-79
2022/10/24 04:32:08;;;;;;;;;;;;;;;5.45;77.84;100147.16;5083955;28;1943;-78
2022/10/24 04:34:35;;;;;;;;;;;;;;;5.41;77.85;100145.91;5056167;28;1625;-78
2022/10/24 04:37:02;;;;;;;;;;;;;;;5.06;77.29;100060.47;5070849;28;1914;-79
2022/10/24 04:39:28;;;;;;;;;;;;;;;5.55;77.49;100138.78;5068114;28;4103;-79
2022/10/24 04:41:54;;;;;;;;;;;;;;;5.47;77.57;100132.59;5059364;28;1911;-78
2022/10/24 04:44:23;;;;;;;;;;;;;;;5.61;77.29;100122.78;5057505;28;2970;-79
2022/10/24 04:46:49;;;;;;;;;;;;;;;5.60;77.15;100126.50;5070979;28;1555;-78
2022/10/24 04:49:15;;;;;;;;;;;;;;;5.56;77.20;100125.25;5061111;28;1924;-80
2022/10/24 04:51:42;;;;;;;;;;;;;;;5.50;77.38;100136.72;5077715;28;1683;-79
2022/10/24 04:54:09;;;;;;;;;;;;;;;5.50;77.92;100130.53;5067927;28;1480;-79
2022/10/24 04:56:35;;;;;;;;;;;;;;;5.44;77.64;100134.81;5058834;28;3073;-79
2022/10/24 04:59:02;;;;;;;;;;;;;;;5.46;77.87;100135.44;5062287;28;1978;-78
2022/10/24 05:01:28;;;;;;;;;;;;;;;5.55;77.43;100133.44;5063466;28;2027;-78
2022/10/24 05:03:54;;;;;;;;;;;;;;;5.63;77.10;100128.78;5050148;28;1663;-77
2022/10/24 05:06:20;;;;;;;;;;;;;;;5.50;77.58;100128.72;5068443;28;1518;-78
2022/10/24 05:08:47;;;;;;;;;;;;;;;5.51;77.64;100130.34;5060887;28;1958;-78
2022/10/24 05:11:13;;;;;;;;;;;;;;;5.65;77.12;100131.25;5075224;28;1864;-78
2022/10/24 05:13:40;;;;;;;;;;;;;;;5.49;77.74;100129.72;5074049;28;1825;-77
2022/10/24 05:16:06;;;;;;;;;;;;;;;5.42;77.77;100123.53;5083371;28;2237;-77
2022/10/24 05:18:32;;;;;;;;;;;;;;;5.49;77.55;100128.91;5064601;28;1610;-77
2022/10/24 05:20:58;;;;;;;;;;;;;;;5.52;77.30;100120.50;5090938;28;1966;-77
2022/10/24 05:23:25;;;;;;;;;;;;;;;5.49;77.67;100119.03;5098998;28;2076;-77
2022/10/24 05:25:51;;;;;;;;;;;;;;;5.43;77.67;100114.47;5101897;28;1199;-79
2022/10/24 05:28:17;;;;;;;;;;;;;;;5.52;77.60;100107.13;5068267;28;2046;-78
2022/10/24 05:30:44;;;;;;;;;;;;;;;5.51;77.56;100117.00;5066699;28;1152;-78
2022/10/24 05:33:10;;;;;;;;;;;;;;;5.51;77.33;100111.66;5071051;28;1274;-78
2022/10/24 05:35:36;;;;;;;;;;;;;;;5.45;77.90;100107.09;5101124;28;1915;-79
2022/10/24 05:38:02;;;;;;;;;;;;;;;5.65;77.29;100104.53;5095546;28;4437;-78
2022/10/24 05:40:29;;;;;;;;;;;;;;;5.64;77.00;100102.88;5087840;28;1714;-78
2022/10/24 05:42:55;;;;;;;;;;;;;;;5.49;77.52;100100.34;5075616;28;1663;-78
2022/10/24 05:45:22;;;;;;;;;;;;;;;5.63;77.00;100094.03;5077220;28;1609;-78
2022/10/24 05:47:48;;;;;;;;;;;;;;;5.50;77.48;100095.81;5092728;28;1919;-79
2022/10/24 05:50:14;;;;;;;;;;;;;;;5.53;77.58;100095.41;5067884;28;1276;-79
2022/10/24 05:52:41;;;;;;;;;;;;;;;5.53;77.46;100093.59;5078909;28;1578;-78
2022/10/24 05:55:07;;;;;;;;;;;;;;;5.58;77.09;100083.13;5086948;28;1929;-80
2022/10/24 05:57:33;;;;;;;;;;;;;;;5.57;77.35;100080.66;5068776;28;1984;-78
2022/10/24 06:00:00;;;;;;;;;;;;;;;5.53;77.38;100079.38;5066298;28;1875;-79
2022/10/24 06:02:26;;;;;;;;;;;;;;;5.45;77.79;100077.72;5051501;28;1890;-79
2022/10/24 06:04:54;;;;;;;;;;;;;;;5.47;77.74;100079.19;5057752;28;1638;-79
2022/10/24 06:07:21;;;;;;;;;;;;;;;5.55;77.50;100080.03;5057423;28;1951;-78
2022/10/24 06:09:47;;;;;;;;;;;;;;;5.49;77.75;100078.16;5053075;28;1681;-79
2022/10/24 06:12:13;;;;;;;;;;;;;;;5.52;77.55;100075.91;5062202;28;1618;-78
2022/10/24 06:14:40;;;;;;;;;;;;;;;5.46;77.68;100074.84;5063880;28;3285;-79
2022/10/24 06:17:07;;;;;;;;;;;;;;;5.39;77.92;100068.66;5063451;28;3242;-79
2022/10/24 06:19:34;;;;;;;;;;;;;;;5.53;77.78;100074.91;5052161;28;2316;-78
2022/10/24 06:22:00;;;;;;;;;;;;;;;5.50;78.03;100077.13;5073066;28;1500;-77
2022/10/24 06:24:26;;;;;;;;;;;;;;;5.54;77.60;100071.19;5065627;28;1482;-77
2022/10/24 06:26:53;;;;;;;;;;;;;;;5.53;77.70;100076.72;5047780;28;1568;-76
2022/10/24 06:29:20;;;;;;;;;;;;;;;5.54;77.33;100073.03;5064391;28;1593;-77
2022/10/24 06:31:46;;;;;;;;;;;;;;;5.51;77.33;100066.25;5075343;28;1780;-78
2022/10/24 06:34:15;;;;;;;;;;;;;;;5.57;77.38;100073.47;5076404;28;1651;-77
2022/10/24 06:36:41;;;;;;;;;;;;;;;5.60;77.42;100070.41;5063230;28;1987;-77
2022/10/24 06:39:08;;;;;;;;;;;;;;;5.53;77.48;100066.03;5076295;28;2494;-77
2022/10/24 06:41:34;;;;;;;;;;;;;;;5.56;77.25;100069.16;5073464;28;1698;-78
2022/10/24 06:44:00;;;;;;;;;;;;;;;5.56;77.40;100069.16;5055059;28;1539;-77
2022/10/24 06:46:28;;;;;;;;;;;;;;;5.58;77.38;100072.44;5044386;28;1639;-78
2022/10/24 06:48:54;;;;;;;;;;;;;;;5.52;77.40;100073.22;5071584;28;1719;-77
2022/10/24 06:51:21;;;;;;;;;;;;;;;5.53;77.55;100066.03;5042670;28;1459;-79
2022/10/24 06:53:47;;;;;;;;;;;;;;;5.69;76.87;100071.88;5063766;28;1505;-77
2022/10/24 06:56:13;;;;;;;;;;;;;;;5.57;77.37;100065.44;5044261;28;1906;-77
2022/10/24 06:58:39;;;;;;;;;;;;;;;5.54;77.54;100067.69;5067173;28;1772;-76
2022/10/24 07:01:06;;;;;;;;;;;;;;;5.66;76.82;100063.44;5057940;28;1532;-77
2022/10/24 07:03:32;;;;;;;;;;;;;;;5.55;77.48;100062.13;5067342;28;1450;-77
2022/10/24 07:05:58;;;;;;;;;;;;;;;5.74;76.71;100065.13;5074187;28;1737;-77
2022/10/24 07:08:25;;;;;;;;;;;;;;;5.64;76.99;100065.47;5076987;28;1804;-78
2022/10/24 07:10:51;;;;;;;;;;;;;;;5.58;77.32;100063.59;5058701;28;1866;-79
2022/10/24 07:13:17;;;;;;;;;;;;;;;5.52;77.49;100053.72;5073576;28;1595;-79
2022/10/24 07:15:43;;;;;;;;;;;;;;;5.75;77.07;100059.56;5069527;28;1982;-79
2022/10/24 07:18:10;;;;;;;;;;;;;;;5.62;76.95;100046.16;5086700;28;1573;-77
2022/10/24 07:20:36;;;;;;;;;;;;;;;5.68;76.85;100048.84;5076704;28;1681;-77
2022/10/24 07:23:02;;;;;;;;;;;;;;;5.59;76.98;100043.88;5077680;28;1287;-79
2022/10/24 07:25:29;;;;;;;;;;;;;;;5.57;77.11;100046.75;5089112;28;1828;-79
2022/10/24 07:27:55;;;;;;;;;;;;;;;5.67;76.98;100054.38;5085185;28;1871;-79
2022/10/24 07:30:21;;;;;;;;;;;;;;;5.60;77.06;100056.22;5077708;28;1532;-78
2022/10/24 07:32:48;;;;;;;;;;;;;;;5.61;77.17;100056.00;5095408;28;1420;-78
2022/10/24 07:35:14;;;;;;;;;;;;;;;5.58;77.45;100050.25;5089289;28;1984;-79
2022/10/24 07:37:41;;;;;;;;;;;;;;;5.76;76.66;100039.00;5091370;28;2915;-79
2022/10/24 07:40:07;;;;;;;;;;;;;;;5.79;76.52;100044.75;5089466;28;4777;-79
2022/10/24 07:42:33;;;;;;;;;;;;;;;5.64;76.84;100041.41;5074698;28;1839;-78
2022/10/24 07:45:01;;;;;;;;;;;;;;;5.63;77.28;100040.59;5085159;28;4783;-79
2022/10/24 07:47:27;;;;;;;;;;;;;;;5.49;77.70;100040.75;5082429;28;1736;-78
2022/10/24 07:49:54;;;;;;;;;;;;;;;5.61;77.36;100044.50;5076085;28;1686;-80
2022/10/24 07:52:20;;;;;;;;;;;;;;;5.51;77.45;100042.22;5088349;28;2077;-79
2022/10/24 07:54:46;;;;;;;;;;;;;;;5.53;77.56;100034.81;5092234;28;1951;-78
2022/10/24 07:57:12;;;;;;;;;;;;;;;5.67;76.90;100039.16;5100129;28;3785;-78
2022/10/24 07:59:39;;;;;;;;;;;;;;;5.66;76.83;100034.84;5082436;28;2697;-78
2022/10/24 08:02:05;;;;;;;;;;;;;;;5.79;76.46;100030.56;5081212;28;2048;-79
2022/10/24 08:04:31;;;;;;;;;;;;;;;5.52;77.34;100037.69;5079833;28;1758;-78
2022/10/24 08:06:58;;;;;;;;;;;;;;;5.58;77.13;100035.03;5086135;28;1654;-79
2022/10/24 08:09:25;;;;;;;;;;;;;;;5.65;77.29;100037.75;5074213;28;2897;-79
2022/10/24 08:11:51;;;;;;;;;;;;;;;5.79;76.33;100019.88;5097679;28;1823;-78
2022/10/24 08:14:17;;;;;;;;;;;;;;;5.65;76.85;100024.38;5100424;28;1816;-79
2022/10/24 08:16:44;;;;;;;;;;;;;;;5.71;76.77;100023.59;5089471;28;4032;-79
2022/10/24 08:19:10;;;;;;;;;;;;;;;5.78;76.59;100012.91;5082607;28;3806;-78
2022/10/24 08:21:36;;;;;;;;;;;;;;;5.72;76.47;100011.84;5092858;28;2807;-79
2022/10/24 08:24:03;;;;;;;;;;;;;;;5.59;77.25;100009.13;5074352;28;1998;-79
2022/10/24 08:26:29;;;;;;;;;;;;;;;5.66;76.83;100005.47;5082458;28;1834;-79
2022/10/24 08:28:56;;;;;;;;;;;;;;;5.84;76.62;100007.56;5094097;28;1546;-79
2022/10/24 08:31:22;;;;;;;;;;;;;;;5.65;76.94;100006.50;5065877;28;1905;-77
2022/10/24 08:33:49;;;;;;;;;;;;;;;5.65;76.88;100003.00;5070604;28;2476;-78
2022/10/24 08:36:15;;;;;;;;;;;;;;;5.76;76.60;99997.06;5065382;28;1992;-78
2022/10/24 08:38:41;;;;;;;;;;;;;;;5.92;76.18;99998.56;5072512;28;1532;-77
2022/10/24 08:41:07;;;;;;;;;;;;;;;5.89;76.03;99993.63;5079173;28;2024;-79
2022/10/24 08:43:34;;;;;;;;;;;;;;;5.73;76.60;99996.66;5079964;28;1884;-79
2022/10/24 08:46:00;;;;;;;;;;;;;;;5.68;76.66;100000.75;5085674;28;1729;-78
2022/10/24 08:48:27;;;;;;;;;;;;;;;5.70;76.68;99997.88;5104972;28;1183;-79
2022/10/24 08:50:53;;;;;;;;;;;;;;;5.76;76.61;99999.72;5101668;28;2070;-79
2022/10/24 08:53:19;;;;;;;;;;;;;;;5.76;76.57;100001.59;5103173;28;1929;-78
2022/10/24 08:55:46;;;;;;;;;;;;;;;5.75;76.21;100005.28;5103366;28;1155;-79
2022/10/24 08:58:12;;;;;;;;;;;;;;;5.71;76.91;99999.53;5082375;28;1913;-80
2022/10/24 09:00:38;;;;;;;;;;;;;;;5.60;77.27;100000.13;5066850;28;1921;-77
2022/10/24 09:03:04;;;;;;;;;;;;;;;5.86;76.37;99999.38;5073678;28;1556;-79
2022/10/24 09:05:31;;;;;;;;;;;;;;;5.64;77.08;99998.69;5097038;28;1917;-80
2022/10/24 09:08:00;;;;;;;;;;;;;;;5.75;76.58;99999.94;5040517;28;1774;-79
2022/10/24 09:10:26;;;;;;;;;;;;;;;5.99;75.86;99995.91;5063906;28;1904;-77
2022/10/24 09:12:53;;;;;;;;;;;;;;;5.79;76.30;99990.50;5088823;28;1962;-78
2022/10/24 09:15:19;;;;;;;;;;;;;;;5.71;76.81;99994.19;5072618;28;1880;-77
2022/10/24 09:17:45;;;;;;;;;;;;;;;5.65;76.83;99995.81;5054624;28;1919;-79
2022/10/24 09:20:11;;;;;;;;;;;;;;;5.60;77.08;99992.91;5090897;28;1827;-79
2022/10/24 09:22:38;;;;;;;;;;;;;;;5.54;77.74;99983.03;5088983;28;1752;-79
2022/10/24 09:25:04;;;;;;;;;;;;;;;5.64;77.37;99991.47;5083034;28;1779;-77
2022/10/24 09:27:30;;;;;;;;;;;;;;;5.89;76.53;99973.06;5091891;28;1638;-77
2022/10/24 09:29:57;;;;;;;;;;;;;;;5.73;76.63;99976.09;5091775;28;1966;-78
2022/10/24 09:32:23;;;;;;;;;;;;;;;5.73;76.89;99977.94;5083774;28;1819;-77
2022/10/24 09:34:49;;;;;;;;;;;;;;;5.63;76.99;99973.81;5096122;28;1870;-78
2022/10/24 09:37:15;;;;;;;;;;;;;;;5.60;77.15;99968.88;5084110;28;2249;-78
2022/10/24 09:39:42;;;;;;;;;;;;;;;5.53;77.76;99969.88;5075824;28;2124;-77
2022/10/24 09:42:08;;;;;;;;;;;;;;;5.59;77.24;99961.91;5087904;28;1523;-77
2022/10/24 09:44:34;;;;;;;;;;;;;;;5.54;77.48;99963.53;5071375;28;1656;-77
2022/10/24 09:47:01;;;;;;;;;;;;;;;5.57;77.75;99965.78;5086959;28;1526;-77
2022/10/24 09:49:27;;;;;;;;;;;;;;;5.54;77.75;99960.84;5091156;28;1914;-78
2022/10/24 09:51:54;;;;;;;;;;;;;;;5.52;77.71;99958.38;5094098;28;1543;-78
2022/10/24 09:54:22;;;;;;;;;;;;;;;5.51;77.68;99951.38;5066004;28;1541;-77
2022/10/24 09:56:49;;;;;;;;;;;;;;;5.51;77.69;99950.56;5068998;28;2101;-80
2022/10/24 09:59:16;;;;;;;;;;;;;;;5.53;77.64;99948.50;5071330;28;2210;-78
2022/10/24 10:01:44;;;;;;;;;;;;;;;5.51;77.98;99954.06;5065607;28;1692;-77
2022/10/24 10:04:10;;;;;;;;;;;;;;;5.50;77.99;99938.22;5075990;28;1904;-77
2022/10/24 10:06:37;;;;;;;;;;;;;;;5.47;77.84;99947.44;5089244;28;1954;-77
2022/10/24 10:09:15;;;;;;;;;;;;;;;;;;;;;
2022/10/24 10:14:50;;;;;;;;;;;;;;;5.46;78.10;99940.47;5082069;28;3690;-79
2022/10/24 10:17:17;;;;;;;;;;;;;;;5.44;78.25;99938.03;5068430;28;1918;-79
2022/10/24 10:19:44;;;;;;;;;;;;;;;5.45;78.22;99930.81;5067228;28;1683;-78
2022/10/24 10:22:10;;;;;;;;;;;;;;;5.45;78.18;99926.31;5084269;28;1409;-79
2022/10/24 10:24:37;;;;;;;;;;;;;;;5.45;78.15;99922.81;5090457;28;1710;-78
2022/10/24 10:27:03;;;;;;;;;;;;;;;5.46;78.30;99921.78;5088390;28;3282;-78
2022/10/24 10:29:32;;;;;;;;;;;;;;;5.45;78.13;99915.63;5089859;28;1608;-77
2022/10/24 10:31:58;;;;;;;;;;;;;;;5.46;78.29;99916.44;5084370;28;1770;-78
2022/10/24 10:34:24;;;;;;;;;;;;;;;5.46;78.30;99922.59;5074872;28;1471;-78
2022/10/24 10:36:51;;;;;;;;;;;;;;;5.47;78.24;99926.09;5092346;28;1906;-78
2022/10/24 10:39:17;;;;;;;;;;;;;;;5.47;78.30;99928.75;5087645;28;2816;-78
2022/10/24 10:41:44;;;;;;;;;;;;;;;5.47;78.10;99920.75;5089116;28;1768;-78
2022/10/24 10:44:11;;;;;;;;;;;;;;;5.46;77.95;99914.59;5061238;28;1589;-78
2022/10/24 10:46:38;;;;;;;;;;;;;;;5.48;78.14;99903.72;5072719;28;4148;-78
2022/10/24 10:49:04;;;;;;;;;;;;;;;5.47;78.28;99910.91;5046531;28;1571;-78
2022/10/24 10:51:30;;;;;;;;;;;;;;;5.48;78.10;99906.38;5041751;28;1846;-77
2022/10/24 10:53:57;;;;;;;;;;;;;;;5.47;78.01;99910.91;5072990;28;3115;-78
2022/10/24 10:56:23;;;;;;;;;;;;;;;5.46;78.05;99893.22;5055068;28;1736;-78
2022/10/24 10:58:50;;;;;;;;;;;;;;;5.48;78.00;99890.34;5068081;28;2042;-78
2022/10/24 11:01:16;;;;;;;;;;;;;;;5.48;78.12;99890.34;5073547;28;1618;-78
2022/10/24 11:03:42;;;;;;;;;;;;;;;5.49;78.30;99894.66;5077056;28;1937;-78
2022/10/24 11:06:09;;;;;;;;;;;;;;;5.50;78.14;99890.13;5073522;28;1926;-80
2022/10/24 11:08:38;;;;;;;;;;;;;;;5.50;78.19;99887.47;5075754;28;2485;-77
2022/10/24 11:11:04;;;;;;;;;;;;;;;5.49;78.14;99881.31;5071958;28;1498;-79
2022/10/24 11:13:31;;;;;;;;;;;;;;;5.51;78.17;99886.47;5044353;28;2080;-78
2022/10/24 11:15:57;;;;;;;;;;;;;;;5.49;78.13;99883.97;5084932;28;1906;-76
2022/10/24 11:18:25;;;;;;;;;;;;;;;5.50;78.10;99882.13;5069124;28;1945;-79
2022/10/24 11:20:52;;;;;;;;;;;;;;;5.51;78.19;99876.59;5063717;28;1678;-77
2022/10/24 11:23:18;;;;;;;;;;;;;;;5.51;78.05;99873.09;5071669;28;2038;-77
2022/10/24 11:25:44;;;;;;;;;;;;;;;5.51;78.15;99865.91;5035132;28;3564;-78
2022/10/24 11:28:11;;;;;;;;;;;;;;;5.51;78.45;99863.25;5051107;28;3948;-78
2022/10/24 11:30:37;;;;;;;;;;;;;;;5.51;78.34;99857.09;5064508;28;3190;-77
2022/10/24 11:33:06;;;;;;;;;;;;;;;5.52;78.13;99853.38;5066443;28;1480;-77
2022/10/24 11:35:36;;;;;;;;;;;;;;;5.53;78.38;99849.66;5064815;28;3003;-77
2022/10/24 11:38:03;;;;;;;;;;;;;;;5.54;78.24;99848.66;5063445;28;1969;-76
2022/10/24 11:40:29;;;;;;;;;;;;;;;5.53;78.23;99847.84;5048567;28;1745;-76
2022/10/24 11:42:57;;;;;;;;;;;;;;;5.54;78.02;99843.31;5068199;28;1598;-76
2022/10/24 11:45:23;;;;;;;;;;;;;;;5.55;78.13;99835.09;5065155;28;1496;-77
2022/10/24 11:47:50;;;;;;;;;;;;;;;5.56;78.22;99833.22;5062015;28;2909;-76
2022/10/24 11:50:17;;;;;;;;;;;;;;;5.55;78.33;99828.91;5062301;28;1508;-76
2022/10/24 11:52:43;;;;;;;;;;;;;;;5.55;78.43;99819.06;5046927;28;1655;-75
2022/10/24 11:55:10;;;;;;;;;;;;;;;5.54;78.43;99817.41;5047626;28;1580;-76
2022/10/24 11:57:36;;;;;;;;;;;;;;;5.56;78.42;99818.03;5050474;28;2019;-76
2022/10/24 12:00:03;;;;;;;;;;;;;;;5.56;78.34;99817.19;5041307;28;1547;-77
2022/10/24 12:02:29;;;;;;;;;;;;;;;5.56;78.14;99798.50;5061879;28;1563;-76
2022/10/24 12:04:55;;;;;;;;;;;;;;;5.56;78.06;99795.81;5037390;28;1535;-77
2022/10/24 12:07:22;;;;;;;;;;;;;;;5.57;78.37;99786.81;5058324;28;1903;-78
2022/10/24 12:09:48;;;;;;;;;;;;;;;5.56;78.41;99782.47;5062771;28;1570;-76
2022/10/24 12:12:14;;;;;;;;;;;;;;;5.56;78.31;99769.97;5063149;28;1515;-76
2022/10/24 12:14:42;;;;;;;;;;;;;;;5.57;78.26;99768.13;5058743;28;1587;-77
2022/10/24 12:17:08;;;;;;;;;;;;;;;5.57;78.38;99776.94;5053430;28;1983;-78
2022/10/24 12:19:36;;;;;;;;;;;;;;;5.57;78.24;99768.13;5060228;28;1445;-77
2022/10/24 12:22:03;;;;;;;;;;;;;;;5.57;78.37;99760.91;5045549;28;1989;-76
2022/10/24 12:24:30;;;;;;;;;;;;;;;5.59;78.37;99758.03;5045398;28;1890;-77
2022/10/24 12:26:56;;;;;;;;;;;;;;;5.57;78.43;99747.56;5043678;28;1851;-78
2022/10/24 12:29:22;;;;;;;;;;;;;;;5.59;78.22;99747.34;5065088;28;1555;-77
2022/10/24 12:31:49;;;;;;;;;;;;;;;5.59;78.14;99742.00;5047044;28;1497;-77
2022/10/24 12:34:15;;;;;;;;;;;;;;;5.60;78.34;99744.47;5059757;28;1564;-78
2022/10/24 12:36:41;;;;;;;;;;;;;;;5.59;78.29;99740.16;5040593;28;2541;-78
2022/10/24 12:39:08;;;;;;;;;;;;;;;5.59;78.30;99737.50;5058525;28;5036;-79
2022/10/24 12:41:34;;;;;;;;;;;;;;;5.61;78.38;99731.94;5052652;28;3831;-77
2022/10/24 12:44:00;;;;;;;;;;;;;;;5.59;78.22;99718.78;5060109;28;1695;-79
2022/10/24 12:46:27;;;;;;;;;;;;;;;5.61;78.43;99721.25;5064681;28;4407;-79
2022/10/24 12:48:53;;;;;;;;;;;;;;;5.60;78.31;99716.94;5060701;28;1618;-77
2022/10/24 12:51:19;;;;;;;;;;;;;;;5.61;78.23;99713.22;5057487;28;1528;-79
2022/10/24 12:53:45;;;;;;;;;;;;;;;5.61;78.19;99716.72;5048494;28;1451;-78
2022/10/24 12:56:12;;;;;;;;;;;;;;;5.62;78.24;99707.69;5056620;28;1579;-77
2022/10/24 12:58:38;;;;;;;;;;;;;;;5.62;78.41;99707.69;5036174;28;4085;-77
2022/10/24 13:01:05;;;;;;;;;;;;;;;5.63;78.36;99697.81;5051353;28;1983;-74